createdAt,value
2022-08-09T00:00:06.175Z,64.89
2022-08-09T00:01:02.640Z,65.09
2022-08-09T00:02:02.744Z,64.92
2022-08-09T00:03:02.610Z,65.12
2022-08-09T00:04:15.301Z,65.42
2022-08-09T00:06:19.001Z,65.62
2022-08-09T00:06:19.253Z,65.62
2022-08-09T00:07:03.700Z,65.62
2022-08-09T00:08:03.751Z,66.02
2022-08-09T00:09:02.784Z,66.05
2022-08-09T00:10:02.824Z,66.05
2022-08-09T00:11:05.883Z,66.36
2022-08-09T00:12:04.946Z,66.36
2022-08-09T00:13:02.934Z,66.36
2022-08-09T00:14:02.962Z,66.46
2022-08-09T00:15:02.969Z,66.36
2022-08-09T00:16:03.142Z,66.36
2022-08-09T00:17:03.061Z,66.16
2022-08-09T00:18:10.224Z,66.25
2022-08-09T00:19:10.232Z,66.46
2022-08-09T00:20:05.102Z,66.66
2022-08-09T00:21:03.173Z,66.76
2022-08-09T00:22:03.632Z,66.66
2022-08-09T00:23:07.802Z,66.86
2022-08-09T00:24:03.273Z,66.96
2022-08-09T00:25:03.931Z,67.16
2022-08-09T00:26:05.109Z,66.86
2022-08-09T00:27:02.418Z,67.07
2022-08-09T00:28:04.150Z,66.96
2022-08-09T00:29:02.544Z,66.66
2022-08-09T00:30:16.284Z,66.79
2022-08-09T00:31:30.750Z,67.07
2022-08-09T00:32:03.665Z,66.89
2022-08-09T00:33:02.149Z,67.10
2022-08-09T00:34:02.514Z,67.10
2022-08-09T00:35:02.244Z,67.19
2022-08-09T00:36:02.256Z,66.99
2022-08-09T00:37:02.310Z,66.99
2022-08-09T00:38:02.943Z,67.30
2022-08-09T00:39:02.377Z,67.60
2022-08-09T00:40:12.323Z,67.50
2022-08-09T00:41:05.383Z,67.40
2022-08-09T00:44:11.526Z,67.30
2022-08-09T00:44:13.998Z,67.60
2022-08-09T00:44:15.931Z,67.30
2022-08-09T00:45:15.947Z,67.50
2022-08-09T00:46:04.926Z,67.50
2022-08-09T00:47:05.588Z,67.50
2022-08-09T00:48:02.099Z,67.80
2022-08-09T00:49:02.127Z,68.04
2022-08-09T00:50:02.186Z,68.04
2022-08-09T00:51:02.238Z,67.83
2022-08-09T00:52:05.539Z,68.04
2022-08-09T00:53:10.257Z,68.33
2022-08-09T00:54:03.370Z,68.33
2022-08-09T00:55:02.397Z,68.33
2022-08-09T00:56:05.872Z,68.33
2022-08-09T00:57:10.151Z,68.54
2022-08-09T00:58:03.569Z,68.74
2022-08-09T00:59:02.558Z,68.64
2022-08-09T01:00:03.052Z,68.64
2022-08-09T01:01:03.445Z,68.64
2022-08-09T01:02:01.967Z,68.64
2022-08-09T01:03:01.819Z,68.54
2022-08-09T01:04:01.880Z,68.64
2022-08-09T01:05:02.530Z,68.44
2022-08-09T01:06:03.950Z,68.44
2022-08-09T01:07:03.656Z,68.44
2022-08-09T01:08:02.030Z,68.54
2022-08-09T01:09:02.068Z,68.44
2022-08-09T01:10:02.100Z,68.24
2022-08-09T01:11:02.146Z,68.24
2022-08-09T01:12:02.192Z,68.44
2022-08-09T01:13:02.241Z,68.54
2022-08-09T01:14:02.292Z,68.95
2022-08-09T01:15:06.067Z,69.04
2022-08-09T01:16:03.350Z,69.15
2022-08-09T01:17:02.390Z,69.15
2022-08-09T01:18:02.435Z,69.15
2022-08-09T01:19:02.531Z,69.15
2022-08-09T01:20:02.650Z,69.24
2022-08-09T01:21:01.532Z,69.15
2022-08-09T01:22:01.554Z,68.95
2022-08-09T01:23:01.621Z,68.95
2022-08-09T01:24:04.860Z,68.95
2022-08-09T01:25:01.731Z,68.84
2022-08-09T01:26:01.771Z,68.95
2022-08-09T01:27:01.824Z,69.15
2022-08-09T01:28:01.852Z,69.35
2022-08-09T01:29:01.914Z,69.45
2022-08-09T01:30:02.200Z,69.75
2022-08-09T01:31:02.004Z,69.58
2022-08-09T01:32:32.446Z,69.48
2022-08-09T01:33:03.115Z,69.45
2022-08-09T01:34:02.194Z,69.58
2022-08-09T01:35:07.023Z,69.89
2022-08-09T01:36:02.243Z,69.78
2022-08-09T01:37:01.311Z,69.98
2022-08-09T01:38:09.483Z,70.19
2022-08-09T01:39:02.412Z,70.09
2022-08-09T01:40:01.385Z,70.09
2022-08-09T01:41:03.051Z,70.19
2022-08-09T01:42:04.088Z,70.29
2022-08-09T01:43:02.348Z,70.39
2022-08-09T01:44:01.367Z,70.39
2022-08-09T01:45:01.452Z,70.29
2022-08-09T01:46:01.459Z,70.39
2022-08-09T01:47:01.498Z,70.49
2022-08-09T01:48:01.557Z,70.49
2022-08-09T01:49:10.236Z,70.49
2022-08-09T01:50:02.704Z,70.49
2022-08-09T01:51:01.132Z,70.49
2022-08-09T01:52:07.479Z,70.69
2022-08-09T01:53:02.227Z,70.89
2022-08-09T01:54:02.297Z,71.10
2022-08-09T01:55:01.348Z,71.00
2022-08-09T01:56:01.569Z,71.03
2022-08-09T01:57:04.010Z,71.13
2022-08-09T01:58:01.560Z,71.13
2022-08-09T01:59:01.588Z,71.23
2022-08-09T02:00:19.342Z,71.33
2022-08-09T02:01:02.743Z,71.44
2022-08-09T02:02:01.835Z,71.47
2022-08-09T02:03:01.768Z,71.37
2022-08-09T02:04:01.810Z,71.37
2022-08-09T02:05:04.680Z,71.77
2022-08-09T02:06:04.038Z,71.97
2022-08-09T02:07:02.777Z,72.38
2022-08-09T02:08:38.848Z,72.48
2022-08-09T02:09:02.095Z,72.61
2022-08-09T02:10:03.874Z,72.92
2022-08-09T02:11:01.253Z,73.02
2022-08-09T02:12:01.338Z,72.72
2022-08-09T02:13:01.421Z,72.61
2022-08-09T02:14:06.353Z,72.61
2022-08-09T02:15:02.528Z,72.51
2022-08-09T02:16:01.603Z,72.55
2022-08-09T02:17:29.329Z,72.65
2022-08-09T02:18:10.382Z,72.95
2022-08-09T02:19:01.764Z,73.05
2022-08-09T02:20:01.317Z,73.05
2022-08-09T02:21:00.865Z,73.25
2022-08-09T02:22:00.910Z,73.46
2022-08-09T02:23:00.994Z,73.66
2022-08-09T02:24:01.977Z,73.76
2022-08-09T02:25:01.064Z,73.66
2022-08-09T02:26:01.111Z,73.66
2022-08-09T02:27:01.125Z,73.56
2022-08-09T02:28:04.188Z,73.66
2022-08-09T02:29:01.255Z,73.66
2022-08-09T02:30:01.677Z,73.56
2022-08-09T02:31:01.368Z,73.66
2022-08-09T02:32:01.392Z,73.66
2022-08-09T02:33:01.453Z,73.86
2022-08-09T02:34:10.920Z,74.00
2022-08-09T02:35:01.554Z,74.07
2022-08-09T02:36:04.482Z,74.20
2022-08-09T02:37:00.658Z,74.20
2022-08-09T02:38:00.688Z,73.90
2022-08-09T02:39:00.749Z,73.90
2022-08-09T02:40:01.525Z,73.90
2022-08-09T02:41:00.504Z,73.80
2022-08-09T02:42:00.549Z,73.49
2022-08-09T02:43:00.606Z,73.59
2022-08-09T02:44:00.651Z,74.00
2022-08-09T02:45:01.697Z,74.30
2022-08-09T02:46:00.779Z,74.71
2022-08-09T02:47:00.836Z,74.91
2022-08-09T02:48:00.907Z,75.21
2022-08-09T02:49:00.978Z,75.11
2022-08-09T02:50:02.363Z,75.01
2022-08-09T02:51:01.707Z,75.11
2022-08-09T02:52:01.305Z,75.01
2022-08-09T02:53:00.208Z,75.01
2022-08-09T02:54:01.430Z,74.71
2022-08-09T02:55:00.356Z,74.54
2022-08-09T02:56:01.136Z,74.64
2022-08-09T02:57:00.517Z,74.64
2022-08-09T02:58:32.450Z,74.64
2022-08-09T02:59:01.239Z,74.84
2022-08-09T03:00:20.428Z,74.84
2022-08-09T03:01:04.454Z,74.95
2022-08-09T03:02:05.878Z,75.04
2022-08-09T03:03:01.439Z,75.04
2022-08-09T03:04:16.964Z,75.15
2022-08-09T03:05:01.506Z,75.25
2022-08-09T03:06:00.530Z,75.35
2022-08-09T03:07:12.336Z,75.55
2022-08-09T03:08:01.609Z,75.55
2022-08-09T03:09:00.630Z,75.76
2022-08-09T03:10:01.918Z,75.85
2022-08-09T03:11:00.740Z,75.96
2022-08-09T03:12:05.205Z,76.20
2022-08-09T03:13:01.848Z,75.99
2022-08-09T03:14:01.761Z,75.69
2022-08-09T03:15:00.928Z,75.99
2022-08-09T03:16:05.929Z,76.09
2022-08-09T03:17:01.876Z,75.99
2022-08-09T03:18:01.089Z,76.09
2022-08-09T03:19:01.879Z,76.40
2022-08-09T03:20:03.416Z,76.70
2022-08-09T03:21:00.213Z,76.90
2022-08-09T03:22:00.279Z,76.90
2022-08-09T03:23:14.969Z,76.90
2022-08-09T03:24:03.977Z,77.11
2022-08-09T03:25:05.743Z,77.11
2022-08-09T03:26:05.190Z,76.74
2022-08-09T03:27:00.713Z,77.04
2022-08-09T03:27:59.771Z,77.04
2022-08-09T03:28:59.843Z,77.04
2022-08-09T03:30:00.927Z,76.94
2022-08-09T03:30:59.982Z,76.94
2022-08-09T03:32:01.052Z,77.04
2022-08-09T03:33:00.120Z,76.84
2022-08-09T03:34:00.173Z,76.94
2022-08-09T03:35:00.243Z,76.94
2022-08-09T03:36:15.841Z,77.14
2022-08-09T03:37:02.471Z,77.04
2022-08-09T03:38:01.432Z,77.14
2022-08-09T03:39:00.495Z,77.25
2022-08-09T03:40:00.911Z,77.34
2022-08-09T03:40:59.623Z,77.45
2022-08-09T03:42:06.007Z,77.34
2022-08-09T03:43:00.713Z,77.21
2022-08-09T03:44:08.614Z,77.21
2022-08-09T03:45:00.878Z,77.31
2022-08-09T03:46:04.758Z,77.21
2022-08-09T03:47:01.044Z,77.31
2022-08-09T03:48:00.136Z,77.31
2022-08-09T03:49:04.385Z,77.14
2022-08-09T03:50:01.356Z,76.60
2022-08-09T03:51:00.416Z,76.70
2022-08-09T03:52:03.749Z,76.70
2022-08-09T03:52:59.535Z,76.40
2022-08-09T03:53:59.639Z,76.60
2022-08-09T03:54:59.706Z,76.50
2022-08-09T03:55:59.906Z,76.54
2022-08-09T03:56:59.887Z,76.33
2022-08-09T03:58:09.823Z,76.13
2022-08-09T03:59:01.041Z,76.23
2022-08-09T04:00:01.398Z,76.33
2022-08-09T04:01:00.217Z,76.74
2022-08-09T04:02:00.878Z,76.94
2022-08-09T04:02:59.307Z,76.94
2022-08-09T04:04:02.215Z,77.04
2022-08-09T04:05:01.102Z,77.55
2022-08-09T04:06:00.602Z,77.55
2022-08-09T04:06:59.635Z,77.25
2022-08-09T04:07:59.706Z,76.98
2022-08-09T04:08:59.778Z,77.18
2022-08-09T04:09:59.884Z,77.38
2022-08-09T04:11:04.100Z,77.69
2022-08-09T04:12:00.028Z,77.79
2022-08-09T04:13:01.042Z,77.69
2022-08-09T04:14:53.835Z,77.99
2022-08-09T04:15:01.726Z,78.19
2022-08-09T04:16:19.737Z,78.50
2022-08-09T04:17:00.413Z,78.40
2022-08-09T04:17:59.459Z,78.50
2022-08-09T04:19:00.508Z,78.60
2022-08-09T04:20:02.684Z,78.70
2022-08-09T04:20:59.680Z,78.80
2022-08-09T04:21:59.776Z,78.91
2022-08-09T04:22:59.888Z,78.70
2022-08-09T04:23:59.931Z,78.30
2022-08-09T04:25:00.015Z,78.19
2022-08-09T04:25:59.051Z,78.50
2022-08-09T04:26:59.130Z,78.60
2022-08-09T04:28:00.043Z,78.74
2022-08-09T04:29:02.442Z,78.70
2022-08-09T04:30:00.385Z,78.80
2022-08-09T04:30:59.457Z,79.00
2022-08-09T04:32:00.549Z,78.80
2022-08-09T04:32:59.643Z,78.91
2022-08-09T04:33:59.721Z,79.00
2022-08-09T04:35:01.345Z,79.00
2022-08-09T04:35:58.851Z,78.70
2022-08-09T04:36:58.935Z,78.60
2022-08-09T04:37:59.020Z,78.70
2022-08-09T04:38:59.310Z,78.80
2022-08-09T04:39:59.230Z,78.77
2022-08-09T04:40:59.313Z,78.66
2022-08-09T04:41:59.788Z,78.77
2022-08-09T04:42:59.478Z,78.97
2022-08-09T04:44:06.684Z,79.17
2022-08-09T04:45:00.711Z,79.27
2022-08-09T04:45:59.752Z,79.17
2022-08-09T04:47:06.009Z,79.17
2022-08-09T04:48:02.942Z,79.07
2022-08-09T04:48:59.975Z,79.17
2022-08-09T04:49:59.094Z,79.07
2022-08-09T04:50:59.221Z,78.46
2022-08-09T04:51:59.310Z,78.46
2022-08-09T04:52:59.386Z,78.66
2022-08-09T04:53:59.486Z,78.56
2022-08-09T04:54:59.556Z,78.87
2022-08-09T04:55:59.704Z,79.07
2022-08-09T04:56:58.735Z,79.17
2022-08-09T04:58:09.203Z,79.38
2022-08-09T04:59:00.613Z,79.47
2022-08-09T04:59:59.956Z,79.58
2022-08-09T05:00:59.025Z,79.58
2022-08-09T05:01:59.139Z,79.92
2022-08-09T05:02:59.254Z,79.92
2022-08-09T05:04:00.296Z,80.12
2022-08-09T05:05:09.692Z,80.08
2022-08-09T05:06:06.508Z,80.12
2022-08-09T05:06:59.557Z,80.08
2022-08-09T05:07:58.577Z,80.08
2022-08-09T05:09:00.713Z,80.19
2022-08-09T05:09:59.078Z,80.19
2022-08-09T05:10:58.840Z,80.19
2022-08-09T05:11:58.921Z,79.98
2022-08-09T05:12:59.030Z,79.78
2022-08-09T05:13:59.074Z,79.88
2022-08-09T05:14:59.155Z,79.64
2022-08-09T05:15:59.237Z,79.64
2022-08-09T05:16:59.735Z,79.74
2022-08-09T05:18:50.833Z,79.74
2022-08-09T05:19:00.389Z,79.64
2022-08-09T05:19:58.486Z,79.54
2022-08-09T05:20:58.517Z,79.34
2022-08-09T05:21:58.606Z,79.24
2022-08-09T05:23:54.966Z,79.13
2022-08-09T05:24:02.181Z,79.13
2022-08-09T05:25:01.105Z,79.13
2022-08-09T05:25:58.899Z,79.24
2022-08-09T05:26:58.958Z,79.20
2022-08-09T05:27:58.992Z,79.20
2022-08-09T05:28:59.055Z,79.10
2022-08-09T05:29:59.272Z,79.00
2022-08-09T05:30:59.177Z,79.00
2022-08-09T05:31:58.754Z,79.00
2022-08-09T05:32:58.281Z,79.10
2022-08-09T05:33:58.334Z,79.20
2022-08-09T05:34:58.389Z,79.20
2022-08-09T05:35:58.500Z,79.20
2022-08-09T05:36:58.540Z,79.30
2022-08-09T05:37:58.622Z,79.40
2022-08-09T05:38:58.683Z,79.50
2022-08-09T05:39:58.796Z,79.40
2022-08-09T05:40:58.808Z,79.50
2022-08-09T05:42:01.665Z,79.77
2022-08-09T05:42:59.956Z,79.67
2022-08-09T05:43:58.459Z,79.57
2022-08-09T05:44:58.088Z,79.36
2022-08-09T05:45:58.185Z,79.36
2022-08-09T05:46:58.260Z,79.67
2022-08-09T05:48:01.381Z,79.77
2022-08-09T05:48:58.573Z,79.57
2022-08-09T05:50:32.426Z,79.67
2022-08-09T05:51:41.547Z,79.67
2022-08-09T05:51:59.661Z,79.36
2022-08-09T05:52:59.691Z,79.53
2022-08-09T05:53:58.767Z,79.53
2022-08-09T05:55:03.173Z,79.22
2022-08-09T05:55:58.842Z,79.33
2022-08-09T05:56:57.829Z,79.73
2022-08-09T05:57:58.384Z,80.04
2022-08-09T05:58:58.631Z,79.73
2022-08-09T05:59:57.990Z,79.43
2022-08-09T06:00:58.269Z,79.29
2022-08-09T06:01:58.885Z,79.49
2022-08-09T06:02:58.195Z,79.69
2022-08-09T06:03:58.911Z,79.49
2022-08-09T06:04:58.216Z,79.39
2022-08-09T06:06:05.829Z,79.08
2022-08-09T06:06:59.356Z,79.08
2022-08-09T06:08:05.596Z,79.08
2022-08-09T06:08:59.432Z,79.19
2022-08-09T06:10:02.754Z,79.35
2022-08-09T06:10:59.201Z,79.35
2022-08-09T06:11:58.017Z,79.05
2022-08-09T06:13:02.952Z,78.75
2022-08-09T06:13:58.746Z,78.85
2022-08-09T06:15:00.866Z,78.55
2022-08-09T06:15:57.825Z,78.34
2022-08-09T06:16:57.866Z,78.20
2022-08-09T06:17:57.928Z,78.00
2022-08-09T06:18:57.978Z,78.00
2022-08-09T06:19:58.097Z,77.90
2022-08-09T06:20:58.658Z,78.00
2022-08-09T06:21:58.715Z,77.80
2022-08-09T06:22:58.197Z,78.00
2022-08-09T06:24:02.319Z,77.90
2022-08-09T06:24:58.349Z,77.60
2022-08-09T06:25:58.375Z,76.79
2022-08-09T06:26:57.396Z,76.28
2022-08-09T06:27:57.477Z,75.74
2022-08-09T06:28:59.537Z,75.84
2022-08-09T06:30:04.643Z,75.34
2022-08-09T06:30:58.864Z,75.64
2022-08-09T06:32:24.673Z,76.04
2022-08-09T06:33:30.219Z,76.04
2022-08-09T06:33:58.842Z,76.35
2022-08-09T06:34:57.883Z,76.62
2022-08-09T06:35:58.564Z,76.51
2022-08-09T06:36:59.707Z,76.51
2022-08-09T06:38:05.621Z,75.51
2022-08-09T06:38:59.097Z,74.49
2022-08-09T06:40:01.229Z,73.85
2022-08-09T06:40:59.173Z,73.85
2022-08-09T06:42:08.896Z,73.75
2022-08-09T06:42:58.278Z,73.45
2022-08-09T06:43:57.307Z,73.45
2022-08-09T06:44:57.559Z,73.75
2022-08-09T06:46:05.974Z,74.46
2022-08-09T06:46:58.513Z,74.87
2022-08-09T06:48:01.504Z,74.16
2022-08-09T06:49:00.172Z,74.83
2022-08-09T06:50:13.899Z,74.73
2022-08-09T06:50:58.783Z,73.72
2022-08-09T06:51:57.869Z,73.92
2022-08-09T06:52:57.868Z,74.02
2022-08-09T06:54:00.734Z,73.82
2022-08-09T06:54:57.991Z,73.92
2022-08-09T06:55:58.021Z,73.32
2022-08-09T06:56:57.033Z,72.88
2022-08-09T06:58:02.844Z,72.47
2022-08-09T07:00:50.246Z,72.78
2022-08-09T07:00:56.943Z,72.98
2022-08-09T07:00:59.877Z,72.27
2022-08-09T07:01:57.977Z,72.07
2022-08-09T07:02:57.307Z,71.77
2022-08-09T07:04:03.691Z,71.73
2022-08-09T07:04:58.421Z,70.12
2022-08-09T07:06:04.127Z,70.12
2022-08-09T07:07:00.132Z,69.52
2022-08-09T07:07:59.626Z,71.13
2022-08-09T07:08:57.592Z,71.03
2022-08-09T07:10:11.507Z,70.90
2022-08-09T07:10:58.748Z,71.10
2022-08-09T07:11:57.747Z,68.68
2022-08-09T07:12:58.209Z,68.48
2022-08-09T07:14:04.790Z,68.28
2022-08-09T07:14:57.838Z,68.65
2022-08-09T07:16:42.173Z,68.65
2022-08-09T07:17:03.157Z,68.24
2022-08-09T07:18:02.227Z,67.03
2022-08-09T07:18:58.088Z,67.51
2022-08-09T07:19:57.024Z,67.51
2022-08-09T07:20:57.057Z,67.00
2022-08-09T07:21:59.136Z,66.20
2022-08-09T07:22:57.612Z,66.80
2022-08-09T07:23:58.358Z,66.80
2022-08-09T07:24:57.169Z,66.77
2022-08-09T07:26:01.514Z,66.87
2022-08-09T07:26:58.269Z,67.27
2022-08-09T07:27:57.308Z,66.77
2022-08-09T07:29:09.310Z,65.77
2022-08-09T07:29:58.744Z,65.36
2022-08-09T07:30:57.494Z,66.14
2022-08-09T07:31:57.505Z,65.73
2022-08-09T07:32:57.581Z,65.44
2022-08-09T07:33:56.563Z,65.53
2022-08-09T07:34:56.612Z,66.14
2022-08-09T07:35:57.569Z,66.03
2022-08-09T07:36:56.715Z,66.00
2022-08-09T07:37:59.558Z,65.30
2022-08-09T07:39:00.776Z,65.10
2022-08-09T07:39:57.921Z,65.00
2022-08-09T07:41:11.567Z,65.00
2022-08-09T07:41:57.923Z,65.50
2022-08-09T07:42:56.979Z,66.41
2022-08-09T07:43:57.054Z,66.17
2022-08-09T07:45:01.400Z,65.47
2022-08-09T07:46:01.927Z,64.77
2022-08-09T07:46:57.170Z,65.47
2022-08-09T07:48:01.560Z,65.04
2022-08-09T07:48:59.584Z,64.24
2022-08-09T07:50:07.772Z,64.64
2022-08-09T07:51:10.371Z,64.34
2022-08-09T07:52:06.229Z,63.73
2022-08-09T07:53:02.246Z,62.33
2022-08-09T07:54:05.445Z,61.72
2022-08-09T07:54:57.645Z,62.53
2022-08-09T07:56:06.037Z,62.43
2022-08-09T07:56:58.599Z,63.43
2022-08-09T07:57:56.556Z,63.33
2022-08-09T07:58:56.621Z,63.13
2022-08-09T08:00:02.850Z,64.04
2022-08-09T08:01:06.157Z,64.61
2022-08-09T08:01:57.804Z,63.70
2022-08-09T08:02:56.754Z,63.40
2022-08-09T08:03:58.731Z,63.81
2022-08-09T08:04:56.813Z,63.17
2022-08-09T08:05:58.595Z,62.27
2022-08-09T08:07:00.386Z,62.07
2022-08-09T08:09:00.718Z,61.87
2022-08-09T08:09:03.847Z,62.77
2022-08-09T08:10:07.730Z,63.07
2022-08-09T08:12:09.324Z,62.64
2022-08-09T08:12:10.307Z,62.54
2022-08-09T08:12:57.007Z,62.54
2022-08-09T08:13:57.226Z,62.44
2022-08-09T08:14:57.096Z,62.24
2022-08-09T08:15:56.285Z,62.04
2022-08-09T08:17:07.864Z,62.31
2022-08-09T08:17:58.685Z,62.31
2022-08-09T08:18:56.196Z,62.01
2022-08-09T08:19:56.252Z,61.51
2022-08-09T08:20:56.276Z,60.81
2022-08-09T08:21:56.301Z,61.01
2022-08-09T08:22:56.324Z,60.81
2022-08-09T08:23:57.467Z,62.92
2022-08-09T08:24:57.495Z,62.41
2022-08-09T08:26:08.168Z,61.58
2022-08-09T08:26:57.469Z,60.48
2022-08-09T08:27:56.521Z,59.98
2022-08-09T08:28:56.555Z,59.38
2022-08-09T08:29:57.106Z,59.48
2022-08-09T08:30:58.128Z,60.28
2022-08-09T08:32:03.336Z,61.18
2022-08-09T08:32:57.681Z,61.38
2022-08-09T08:33:56.713Z,61.65
2022-08-09T08:34:58.809Z,61.35
2022-08-09T08:36:00.516Z,60.95
2022-08-09T08:36:56.805Z,60.35
2022-08-09T08:38:02.117Z,60.15
2022-08-09T08:38:56.869Z,59.45
2022-08-09T08:39:55.989Z,59.22
2022-08-09T08:40:55.987Z,60.12
2022-08-09T08:41:58.873Z,59.22
2022-08-09T08:42:56.020Z,58.92
2022-08-09T08:44:00.568Z,60.42
2022-08-09T08:44:57.159Z,60.52
2022-08-09T08:46:10.058Z,59.02
2022-08-09T08:47:02.815Z,58.62
2022-08-09T08:47:59.785Z,59.02
2022-08-09T08:48:56.155Z,60.10
2022-08-09T08:49:56.179Z,58.69
2022-08-09T08:50:57.267Z,58.09
2022-08-09T08:52:00.219Z,58.09
2022-08-09T08:52:59.588Z,58.80
2022-08-09T08:54:03.272Z,59.09
2022-08-09T08:54:57.325Z,58.39
2022-08-09T08:55:56.333Z,58.80
2022-08-09T08:56:56.372Z,58.26
2022-08-09T08:57:58.209Z,57.57
2022-08-09T08:58:56.369Z,57.87
2022-08-09T08:59:57.357Z,56.57
2022-08-09T09:00:57.106Z,55.97
2022-08-09T09:01:57.367Z,55.77
2022-08-09T09:02:55.836Z,56.37
2022-08-09T09:03:56.146Z,56.16
2022-08-09T09:04:55.419Z,56.07
2022-08-09T09:06:00.574Z,55.87
2022-08-09T09:06:56.436Z,56.16
2022-08-09T09:07:55.476Z,57.17
2022-08-09T09:08:59.403Z,57.04
2022-08-09T09:10:01.558Z,56.84
2022-08-09T09:10:56.521Z,56.24
2022-08-09T09:11:55.542Z,57.24
2022-08-09T09:12:55.611Z,56.81
2022-08-09T09:13:58.459Z,55.02
2022-08-09T09:14:55.595Z,55.71
2022-08-09T09:15:55.605Z,55.71
2022-08-09T09:16:55.618Z,55.81
2022-08-09T09:17:55.642Z,54.61
2022-08-09T09:19:10.832Z,55.21
2022-08-09T09:19:56.707Z,54.79
2022-08-09T09:20:55.776Z,55.49
2022-08-09T09:21:55.733Z,54.89
2022-08-09T09:22:55.853Z,53.99
2022-08-09T09:23:58.210Z,54.09
2022-08-09T09:26:00.420Z,55.26
2022-08-09T09:26:04.158Z,54.76
2022-08-09T09:26:56.787Z,54.06
2022-08-09T09:28:06.868Z,54.86
2022-08-09T09:29:04.128Z,54.36
2022-08-09T09:30:37.643Z,53.54
2022-08-09T09:30:57.174Z,54.44
2022-08-09T09:32:15.269Z,54.44
2022-08-09T09:32:56.931Z,54.11
2022-08-09T09:33:56.719Z,53.61
2022-08-09T09:34:55.856Z,53.29
2022-08-09T09:36:01.605Z,52.39
2022-08-09T09:36:56.846Z,52.00
2022-08-09T09:37:55.841Z,50.90
2022-08-09T09:38:55.994Z,51.59
2022-08-09T09:39:57.712Z,52.19
2022-08-09T09:40:55.874Z,52.86
2022-08-09T09:41:54.891Z,52.97
2022-08-09T09:42:54.909Z,53.86
2022-08-09T09:44:11.499Z,53.06
2022-08-09T09:44:55.912Z,52.94
2022-08-09T09:46:41.792Z,52.14
2022-08-09T09:46:55.942Z,52.24
2022-08-09T09:47:58.797Z,52.37
2022-08-09T09:48:54.985Z,52.94
2022-08-09T09:50:14.832Z,52.34
2022-08-09T09:50:56.041Z,51.82
2022-08-09T09:51:56.039Z,51.82
2022-08-09T09:52:56.488Z,51.00
2022-08-09T09:54:01.655Z,50.60
2022-08-09T09:54:56.063Z,50.50
2022-08-09T09:55:57.819Z,50.98
2022-08-09T09:58:01.657Z,49.98
2022-08-09T09:58:02.688Z,50.58
2022-08-09T09:58:56.085Z,50.10
2022-08-09T09:59:55.091Z,51.10
2022-08-09T10:00:59.034Z,50.80
2022-08-09T10:01:55.100Z,49.51
2022-08-09T10:02:55.241Z,50.01
2022-08-09T10:03:58.201Z,50.70
2022-08-09T10:04:55.161Z,48.52
2022-08-09T10:06:03.674Z,48.81
2022-08-09T10:06:56.188Z,49.91
2022-08-09T10:08:01.202Z,49.58
2022-08-09T10:08:57.847Z,50.28
2022-08-09T10:09:55.319Z,50.16
2022-08-09T10:10:55.605Z,49.16
2022-08-09T10:12:07.594Z,49.54
2022-08-09T10:12:56.381Z,48.54
2022-08-09T10:13:55.047Z,48.77
2022-08-09T10:14:55.036Z,49.96
2022-08-09T10:16:54.727Z,50.43
2022-08-09T10:17:00.398Z,49.24
2022-08-09T10:17:57.070Z,50.03
2022-08-09T10:18:54.952Z,49.02
2022-08-09T10:19:57.097Z,47.65
2022-08-09T10:20:54.843Z,48.65
2022-08-09T10:21:54.803Z,48.44
2022-08-09T10:23:00.463Z,48.32
2022-08-09T10:23:55.724Z,48.02
2022-08-09T10:24:54.675Z,47.53
2022-08-09T10:26:07.417Z,47.23
2022-08-09T10:26:55.581Z,47.33
2022-08-09T10:27:57.988Z,47.83
2022-08-09T10:29:14.072Z,47.03
2022-08-09T10:30:26.431Z,46.73
2022-08-09T10:32:55.903Z,46.06
2022-08-09T10:34:10.067Z,46.73
2022-08-09T10:34:55.265Z,46.83
2022-08-09T10:35:54.248Z,47.73
2022-08-09T10:36:54.167Z,50.01
2022-08-09T10:37:54.130Z,48.10
2022-08-09T10:38:59.800Z,47.58
2022-08-09T10:39:55.090Z,47.49
2022-08-09T10:40:56.435Z,47.75
2022-08-09T10:41:55.043Z,45.97
2022-08-09T10:42:54.925Z,46.77
2022-08-09T10:43:59.428Z,46.74
2022-08-09T10:44:55.866Z,46.64
2022-08-09T10:45:59.981Z,45.23
2022-08-09T10:47:00.586Z,44.54
2022-08-09T10:48:16.912Z,44.67
2022-08-09T10:48:55.648Z,44.46
2022-08-09T10:49:56.529Z,45.16
2022-08-09T10:50:55.480Z,45.26
2022-08-09T10:51:54.484Z,44.37
2022-08-09T10:52:54.505Z,44.67
2022-08-09T10:53:55.062Z,45.65
2022-08-09T10:54:54.380Z,46.12
2022-08-09T10:55:58.636Z,45.23
2022-08-09T10:56:55.299Z,44.72
2022-08-09T10:57:55.414Z,44.92
2022-08-09T10:58:54.339Z,44.31
2022-08-09T10:59:57.410Z,43.21
2022-08-09T11:03:10.914Z,42.32
2022-08-09T11:03:11.488Z,43.29
2022-08-09T11:03:13.532Z,42.92
2022-08-09T11:04:03.600Z,43.71
2022-08-09T11:04:55.879Z,43.80
2022-08-09T11:06:00.339Z,43.19
2022-08-09T11:06:54.895Z,42.99
2022-08-09T11:07:57.563Z,42.68
2022-08-09T11:08:54.911Z,42.88
2022-08-09T11:09:56.433Z,43.07
2022-08-09T11:10:56.287Z,42.56
2022-08-09T11:11:54.612Z,41.79
2022-08-09T11:12:54.553Z,42.56
2022-08-09T11:13:55.033Z,41.59
2022-08-09T11:14:54.464Z,41.41
2022-08-09T11:16:06.356Z,41.93
2022-08-09T11:16:55.422Z,41.14
2022-08-09T11:18:02.944Z,42.62
2022-08-09T11:18:55.376Z,41.63
2022-08-09T11:20:10.599Z,39.85
2022-08-09T11:20:55.372Z,40.45
2022-08-09T11:21:57.305Z,40.45
2022-08-09T11:22:55.564Z,42.13
2022-08-09T11:23:54.250Z,41.04
2022-08-09T11:24:54.150Z,40.82
2022-08-09T11:25:54.870Z,39.93
2022-08-09T11:26:54.985Z,39.72
2022-08-09T11:28:03.745Z,41.49
2022-08-09T11:28:56.917Z,41.10
2022-08-09T11:30:06.413Z,40.31
2022-08-09T11:30:54.818Z,39.81
2022-08-09T11:31:54.812Z,41.00
2022-08-09T11:32:53.749Z,40.31
2022-08-09T11:33:53.701Z,40.98
2022-08-09T11:34:53.660Z,40.39
2022-08-09T11:35:53.533Z,39.50
2022-08-09T11:36:53.534Z,39.40
2022-08-09T11:37:53.438Z,39.89
2022-08-09T11:38:53.406Z,38.81
2022-08-09T11:39:53.383Z,40.69
2022-08-09T11:40:54.957Z,39.87
2022-08-09T11:41:58.588Z,39.48
2022-08-09T11:42:54.211Z,39.87
2022-08-09T11:43:54.179Z,38.77
2022-08-09T11:44:55.069Z,39.17
2022-08-09T11:45:54.079Z,38.77
2022-08-09T11:46:55.010Z,38.06
2022-08-09T11:47:54.565Z,37.98
2022-08-09T11:48:54.033Z,38.45
2022-08-09T11:50:54.378Z,38.35
2022-08-09T11:52:48.718Z,38.75
2022-08-09T11:52:56.595Z,38.73
2022-08-09T11:53:15.111Z,38.43
2022-08-09T11:54:01.192Z,38.02
2022-08-09T11:54:54.797Z,38.02
2022-08-09T11:56:02.564Z,37.02
2022-08-09T11:56:54.624Z,37.32
2022-08-09T11:58:02.475Z,37.02
2022-08-09T11:58:54.566Z,36.23
2022-08-09T11:59:54.433Z,37.51
2022-08-09T12:00:53.412Z,37.91
2022-08-09T12:02:16.612Z,37.41
2022-08-09T12:02:54.471Z,36.41
2022-08-09T12:03:56.953Z,36.90
2022-08-09T12:04:58.102Z,36.41
2022-08-09T12:05:54.050Z,36.59
2022-08-09T12:06:53.114Z,36.20
2022-08-09T12:07:54.713Z,36.88
2022-08-09T12:08:54.684Z,35.51
2022-08-09T12:09:53.875Z,35.82
2022-08-09T12:10:54.080Z,36.90
2022-08-09T12:12:03.059Z,36.49
2022-08-09T12:12:54.681Z,35.80
2022-08-09T12:14:07.969Z,34.43
2022-08-09T12:15:08.186Z,35.02
2022-08-09T12:15:54.488Z,35.21
2022-08-09T12:16:53.593Z,35.31
2022-08-09T12:17:54.471Z,35.10
2022-08-09T12:18:53.734Z,35.39
2022-08-09T12:19:53.354Z,34.70
2022-08-09T12:20:54.613Z,35.10
2022-08-09T12:21:53.263Z,35.57
2022-08-09T12:22:53.186Z,35.77
2022-08-09T12:24:03.056Z,34.67
2022-08-09T12:24:54.095Z,33.98
2022-08-09T12:25:53.034Z,33.39
2022-08-09T12:28:57.734Z,33.20
2022-08-09T12:29:14.625Z,33.94
2022-08-09T12:29:15.216Z,33.12
2022-08-09T12:30:03.957Z,34.74
2022-08-09T12:30:53.778Z,34.34
2022-08-09T12:31:59.163Z,34.34
2022-08-09T12:32:53.683Z,34.56
2022-08-09T12:34:01.057Z,34.36
2022-08-09T12:34:53.642Z,35.05
2022-08-09T12:35:53.625Z,36.33
2022-08-09T12:36:58.891Z,36.23
2022-08-09T12:37:54.556Z,34.67
2022-08-09T12:38:53.465Z,34.67
2022-08-09T12:39:53.432Z,34.77
2022-08-09T12:40:53.410Z,35.44
2022-08-09T12:41:53.308Z,35.53
2022-08-09T12:42:53.267Z,34.43
2022-08-09T12:44:05.749Z,34.51
2022-08-09T12:44:54.706Z,33.82
2022-08-09T12:45:59.672Z,32.82
2022-08-09T12:46:54.253Z,33.22
2022-08-09T12:47:53.016Z,32.62
2022-08-09T12:48:52.938Z,32.33
2022-08-09T12:49:53.271Z,31.94
2022-08-09T12:50:52.840Z,32.14
2022-08-09T12:52:00.867Z,32.33
2022-08-09T12:53:08.002Z,33.51
2022-08-09T12:53:55.208Z,31.94